Orbital elements of FENGYUN 1C DEB
| Launched | 9 May 1999 |
| Flight ended | – |
| Launch site | Taiyuan Space Center, PRC |
| Owner | People's Republic of China |
| NORAD ID | 37691 |
| Date fetched |
Epoch osculation |
Inc. [°] |
Ecc. | RA asc node [hr] |
Arg Peri. [°] |
Mean anom [°] |
Mean motion [rev/day] |
Abs. mag |
| Date fetched |
Epoch osculation |
Inc. [°] |
Ecc. | RA asc node [hr] |
Arg Peri. [°] |
Mean anom [°] |
Mean motion [rev/day] |
Abs. mag |
| 2026 May 07 17:58 | 2026 May 03 11:43:47 | 98.3654 | 0.02629 | 2.2572 | 69.2918 | 293.6252 | 14.63453 | – |
| 2026 May 06 17:57 | 2026 May 03 11:43:47 | 98.3654 | 0.02629 | 2.2572 | 69.2918 | 293.6252 | 14.63453 | – |
| 2026 May 05 17:57 | 2026 May 03 11:43:47 | 98.3654 | 0.02629 | 2.2572 | 69.2918 | 293.6252 | 14.63453 | – |
| 2026 May 04 17:57 | 2026 Apr 30 00:02:18 | 98.3693 | 0.02633 | 2.0211 | 80.0746 | 293.6252 | 14.63453 | – |
| 2026 May 03 17:57 | 2026 Apr 30 00:02:18 | 98.3693 | 0.02633 | 2.0211 | 80.0746 | 293.6252 | 14.63453 | – |
| 2026 May 02 17:57 | 2026 Apr 30 00:02:18 | 98.3693 | 0.02633 | 2.0211 | 80.0746 | 293.6252 | 14.63453 | – |
| 2026 May 01 17:56 | 2026 Apr 30 00:02:18 | 98.3693 | 0.02633 | 2.0211 | 80.0746 | 293.6252 | 14.63453 | – |
| 2026 Apr 30 17:56 | 2026 Apr 30 00:02:18 | 98.3693 | 0.02633 | 2.0211 | 80.0746 | 293.6252 | 14.63453 | – |
| 2026 Apr 29 17:57 | 2026 Apr 22 11:29:55 | 98.3661 | 0.02637 | 1.5120 | 103.4049 | 293.6252 | 14.63453 | – |
| 2026 Apr 28 17:56 | 2026 Apr 22 11:29:55 | 98.3661 | 0.02637 | 1.5120 | 103.4049 | 293.6252 | 14.63453 | – |
| 2026 Apr 27 17:58 | 2026 Apr 22 11:29:55 | 98.3661 | 0.02637 | 1.5120 | 103.4049 | 293.6252 | 14.63453 | – |
| 2026 Apr 26 17:58 | 2026 Apr 22 11:29:55 | 98.3661 | 0.02637 | 1.5120 | 103.4049 | 293.6252 | 14.63453 | – |
| 2026 Apr 25 17:58 | 2026 Apr 22 11:29:55 | 98.3661 | 0.02637 | 1.5120 | 103.4049 | 293.6252 | 14.63453 | – |
| 2026 Apr 24 17:59 | 2026 Apr 22 11:29:55 | 98.3661 | 0.02637 | 1.5120 | 103.4049 | 293.6252 | 14.63453 | – |
| 2026 Apr 23 17:57 | 2026 Apr 19 11:16:27 | 98.3665 | 0.02640 | 1.3084 | 112.7393 | 293.6252 | 14.63453 | – |
| 2026 Apr 22 17:57 | 2026 Apr 19 11:16:27 | 98.3665 | 0.02640 | 1.3084 | 112.7393 | 293.6252 | 14.63453 | – |
| 2026 Apr 21 17:57 | 2026 Apr 19 11:16:27 | 98.3665 | 0.02640 | 1.3084 | 112.7393 | 293.6252 | 14.63453 | – |
| 2026 Apr 20 17:57 | 2026 Apr 19 11:16:27 | 98.3665 | 0.02640 | 1.3084 | 112.7393 | 293.6252 | 14.63453 | – |
| 2026 Apr 19 17:58 | 2026 Apr 19 11:16:27 | 98.3665 | 0.02640 | 1.3084 | 112.7393 | 293.6252 | 14.63453 | – |
| 2026 Apr 18 17:56 | 2026 Apr 12 11:49:55 | 98.3664 | 0.02636 | 0.8364 | 134.4605 | 293.6252 | 14.63453 | – |
| 2026 Apr 16 17:57 | 2026 Apr 12 11:49:55 | 98.3664 | 0.02636 | 0.8364 | 134.4605 | 293.6252 | 14.63453 | – |
| 2026 Apr 14 17:57 | 2026 Apr 12 11:49:55 | 98.3664 | 0.02636 | 0.8364 | 134.4605 | 293.6252 | 14.63453 | – |
| 2026 Apr 13 17:57 | 2026 Apr 12 11:49:55 | 98.3664 | 0.02636 | 0.8364 | 134.4605 | 293.6252 | 14.63453 | – |
| 2026 Apr 12 17:57 | 2026 Apr 06 11:21:36 | 98.3661 | 0.02633 | 0.4293 | 153.3578 | 293.6252 | 14.63453 | – |
| 2026 Apr 11 17:57 | 2026 Apr 06 11:21:36 | 98.3661 | 0.02633 | 0.4293 | 153.3578 | 293.6252 | 14.63453 | – |
| 2026 Apr 10 17:58 | 2026 Apr 06 11:21:36 | 98.3661 | 0.02633 | 0.4293 | 153.3578 | 293.6252 | 14.63453 | – |